createdAt,value
2019-03-06T00:01:41.057Z,100309.97
2019-03-06T00:04:10.654Z,100303.58
2019-03-06T00:06:40.208Z,100300.86
2019-03-06T00:09:09.802Z,100293.88
2019-03-06T00:11:39.333Z,100284.84
2019-03-06T00:14:08.974Z,100285.52
2019-03-06T00:16:38.457Z,100287.59
2019-03-06T00:19:08.032Z,100285.22
2019-03-06T00:21:37.543Z,100277.99
2019-03-06T00:24:07.141Z,100271.13
2019-03-06T00:26:36.637Z,100271.31
2019-03-06T00:29:06.360Z,100267.15
2019-03-06T00:31:36.217Z,100262.36
2019-03-06T00:34:05.872Z,100259.48
2019-03-06T00:36:35.928Z,100258.42
2019-03-06T00:39:07.689Z,100259.50
2019-03-06T00:41:38.624Z,100256.41
2019-03-06T00:44:08.122Z,100253.03
2019-03-06T00:46:37.901Z,100260.63
2019-03-06T00:49:07.456Z,100253.66
2019-03-06T00:51:37.042Z,100250.52
2019-03-06T00:54:06.665Z,100245.19
2019-03-06T00:56:36.227Z,100243.84
2019-03-06T00:59:05.848Z,100237.73
2019-03-06T01:01:35.432Z,100240.30
2019-03-06T01:04:04.994Z,100239.95
2019-03-06T01:06:34.950Z,100235.89
2019-03-06T01:09:06.116Z,100232.84
2019-03-06T01:11:35.648Z,100229.48
2019-03-06T01:14:05.283Z,100233.43
2019-03-06T01:16:34.770Z,100229.90
2019-03-06T01:19:04.333Z,100222.97
2019-03-06T01:21:33.912Z,100231.00
2019-03-06T01:24:03.469Z,100225.02
2019-03-06T01:26:32.952Z,100226.11
2019-03-06T01:29:02.440Z,100224.69
2019-03-06T01:31:32.009Z,100218.86
2019-03-06T01:34:03.220Z,100218.02
2019-03-06T01:36:37.317Z,100213.55
2019-03-06T01:39:12.091Z,100214.48
2019-03-06T01:41:55.061Z,100207.68
2019-03-06T01:44:26.261Z,100206.94
2019-03-06T01:46:55.840Z,100208.11
2019-03-06T01:49:25.499Z,100199.22
2019-03-06T01:51:55.004Z,100203.52
2019-03-06T01:54:24.504Z,100206.93
2019-03-06T01:56:54.008Z,100202.35
2019-03-06T01:59:23.505Z,100199.70
2019-03-06T02:01:53.052Z,100197.97
2019-03-06T02:04:22.602Z,100194.54
2019-03-06T02:06:52.092Z,100189.36
2019-03-06T02:09:22.138Z,100183.92
2019-03-06T02:11:51.856Z,100177.30
2019-03-06T02:14:21.433Z,100175.59
2019-03-06T02:16:51.076Z,100168.20
2019-03-06T02:19:20.696Z,100166.91
2019-03-06T02:21:50.256Z,100162.46
2019-03-06T02:24:20.124Z,100163.31
2019-03-06T02:26:49.718Z,100154.63
2019-03-06T02:29:19.182Z,100149.27
2019-03-06T02:31:48.681Z,100141.16
2019-03-06T02:34:18.254Z,100131.47
2019-03-06T02:36:47.913Z,100131.61
2019-03-06T02:39:17.540Z,100133.39
2019-03-06T02:41:47.105Z,100133.81
2019-03-06T02:44:16.589Z,100125.52
2019-03-06T02:46:46.065Z,100131.30
2019-03-06T02:49:15.847Z,100134.02
2019-03-06T02:51:45.353Z,100139.55
2019-03-06T02:54:14.894Z,100133.48
2019-03-06T02:56:44.382Z,100129.89
2019-03-06T02:59:18.034Z,100121.35
2019-03-06T03:01:49.230Z,100115.06
2019-03-06T03:04:20.408Z,100113.65
2019-03-06T03:06:54.204Z,100099.19
2019-03-06T03:09:23.695Z,100098.58
2019-03-06T03:11:53.450Z,100085.24
2019-03-06T03:14:22.935Z,100081.81
2019-03-06T03:16:52.416Z,100074.47
2019-03-06T03:19:21.906Z,100071.20
2019-03-06T03:21:51.468Z,100067.04
2019-03-06T03:24:21.264Z,100075.14
2019-03-06T03:26:50.762Z,100070.16
2019-03-06T03:29:20.230Z,100069.05
2019-03-06T03:32:09.067Z,100071.14
2019-03-06T03:34:38.544Z,100066.91
2019-03-06T03:37:08.048Z,100067.19
2019-03-06T03:39:37.533Z,100057.31
2019-03-06T03:42:07.080Z,100049.50
2019-03-06T03:44:36.601Z,100054.78
2019-03-06T03:47:06.239Z,100058.66
2019-03-06T03:49:35.733Z,100036.20
2019-03-06T03:52:05.249Z,100021.98
2019-03-06T03:54:34.890Z,100017.03
2019-03-06T03:57:04.433Z,100013.20
2019-03-06T03:59:33.908Z,100010.28
2019-03-06T04:02:03.473Z,100014.98
2019-03-06T04:04:32.970Z,100020.53
2019-03-06T04:07:02.500Z,100025.69
2019-03-06T04:09:31.983Z,100013.63
2019-03-06T04:12:01.537Z,100010.39
2019-03-06T04:14:31.037Z,100001.00
2019-03-06T04:17:00.676Z,99999.18
2019-03-06T04:19:30.199Z,100012.20
2019-03-06T04:21:59.670Z,100014.69
2019-03-06T04:24:29.452Z,100018.48
2019-03-06T04:26:58.953Z,100011.28
2019-03-06T04:29:28.510Z,100007.14
2019-03-06T04:31:58.035Z,100012.92
2019-03-06T04:34:27.485Z,100006.61
2019-03-06T04:36:57.104Z,100012.66
2019-03-06T04:39:26.658Z,100010.34
2019-03-06T04:41:56.151Z,100009.39
2019-03-06T04:44:25.634Z,100003.34
2019-03-06T04:46:55.147Z,99991.22
2019-03-06T04:49:24.666Z,99984.71
2019-03-06T04:51:54.134Z,99993.28
2019-03-06T04:54:23.667Z,99981.09
2019-03-06T04:56:53.110Z,99970.01
2019-03-06T04:59:22.618Z,99961.01
2019-03-06T05:01:52.109Z,99961.11
2019-03-06T05:04:21.621Z,99967.91
2019-03-06T05:06:51.182Z,99968.81
2019-03-06T05:09:20.659Z,99963.87
2019-03-06T05:11:50.143Z,99956.45
2019-03-06T05:14:19.646Z,99959.09
2019-03-06T05:16:56.637Z,99953.28
2019-03-06T05:19:26.136Z,99952.95
2019-03-06T05:21:55.628Z,99949.50
2019-03-06T05:24:25.275Z,99941.55
2019-03-06T05:26:54.837Z,99942.09
2019-03-06T05:29:24.325Z,99932.87
2019-03-06T05:32:32.238Z,99929.75
2019-03-06T05:35:06.076Z,99923.73
2019-03-06T05:38:04.435Z,99908.98
2019-03-06T05:40:33.996Z,99907.30
2019-03-06T05:43:03.543Z,99906.77
2019-03-06T05:45:33.145Z,99901.28
2019-03-06T05:48:03.038Z,99896.97
2019-03-06T05:50:32.591Z,99887.02
2019-03-06T05:53:02.073Z,99885.78
2019-03-06T05:55:50.898Z,99881.52
2019-03-06T05:58:20.467Z,99876.80
2019-03-06T06:00:49.947Z,99877.70
2019-03-06T06:03:19.517Z,99875.28
2019-03-06T06:05:49.092Z,99863.74
2019-03-06T06:08:18.882Z,99863.75
2019-03-06T06:10:48.348Z,99862.50
2019-03-06T06:13:17.915Z,99856.61
2019-03-06T06:15:47.394Z,99851.88
2019-03-06T06:18:16.893Z,99859.33
2019-03-06T06:20:48.214Z,99852.30
2019-03-06T06:23:35.648Z,99850.28
2019-03-06T06:26:05.145Z,99847.17
2019-03-06T06:28:34.653Z,99841.48
2019-03-06T06:31:04.212Z,99841.75
2019-03-06T06:33:33.775Z,99839.56
2019-03-06T06:36:03.259Z,99835.33
2019-03-06T06:38:32.834Z,99829.73
2019-03-06T06:41:02.606Z,99832.31
2019-03-06T06:43:32.122Z,99827.22
2019-03-06T06:46:01.679Z,99821.34
2019-03-06T06:48:31.133Z,99818.21
2019-03-06T06:51:16.957Z,99810.20
2019-03-06T06:53:56.914Z,99813.98
2019-03-06T06:56:48.909Z,99809.66
2019-03-06T06:59:37.975Z,99809.70
2019-03-06T07:02:34.877Z,99797.98
2019-03-06T07:05:16.221Z,99790.23
2019-03-06T07:08:03.558Z,99792.42
2019-03-06T07:10:37.727Z,99786.52
2019-03-06T07:13:09.032Z,99770.73
2019-03-06T07:15:49.222Z,99768.98
2019-03-06T07:18:29.647Z,99765.59
2019-03-06T07:21:17.394Z,99757.95
2019-03-06T07:24:00.943Z,99751.56
2019-03-06T07:26:38.204Z,99764.50
2019-03-06T07:29:25.590Z,99756.61
2019-03-06T07:32:02.610Z,99750.14
2019-03-06T07:34:33.761Z,99757.68
2019-03-06T07:37:04.923Z,99755.83
2019-03-06T07:39:36.077Z,99749.05
2019-03-06T07:42:14.785Z,99742.98
2019-03-06T07:45:23.718Z,99749.63
2019-03-06T07:47:57.842Z,99737.44
2019-03-06T07:50:32.915Z,99737.56
2019-03-06T07:53:51.944Z,99732.80
2019-03-06T07:56:30.686Z,99725.05
2019-03-06T07:59:04.131Z,99726.83
2019-03-06T08:01:57.540Z,99720.43
2019-03-06T08:04:27.641Z,99707.08
2019-03-06T08:07:15.672Z,99709.22
2019-03-06T08:09:48.701Z,99711.83
2019-03-06T08:12:24.595Z,99704.52
2019-03-06T08:15:12.254Z,99697.14
2019-03-06T08:17:50.339Z,99702.77
2019-03-06T08:20:22.976Z,99697.58
2019-03-06T08:23:10.627Z,99699.36
2019-03-06T08:25:49.385Z,99684.19
2019-03-06T08:28:23.560Z,99676.42
2019-03-06T08:31:09.560Z,99678.59
2019-03-06T08:33:40.391Z,99680.72
2019-03-06T08:36:14.696Z,99678.97
2019-03-06T08:38:44.280Z,99681.53
2019-03-06T08:41:13.927Z,99675.82
2019-03-06T08:43:43.880Z,99686.23
2019-03-06T08:46:20.868Z,99681.45
2019-03-06T08:48:59.000Z,99681.02
2019-03-06T08:51:28.470Z,99679.55
2019-03-06T08:54:15.051Z,99679.55
2019-03-06T08:56:55.088Z,99679.91
2019-03-06T08:59:35.692Z,99676.77
2019-03-06T09:02:05.116Z,99672.41
2019-03-06T09:04:36.900Z,99660.84
2019-03-06T09:07:17.346Z,99652.09
2019-03-06T09:09:57.564Z,99647.62
2019-03-06T09:12:34.967Z,99638.92
2019-03-06T09:15:12.903Z,99634.76
2019-03-06T09:18:08.800Z,99625.88
2019-03-06T09:20:53.220Z,99623.72
2019-03-06T09:23:36.416Z,99615.34
2019-03-06T09:26:23.071Z,99617.15
2019-03-06T09:29:00.972Z,99609.86
2019-03-06T09:31:46.103Z,99607.59
2019-03-06T09:34:17.511Z,99614.55
2019-03-06T09:37:03.960Z,99595.19
2019-03-06T09:39:37.950Z,99588.42
2019-03-06T09:42:27.953Z,99592.11
2019-03-06T09:45:15.421Z,99581.64
2019-03-06T09:47:52.755Z,99581.69
2019-03-06T09:50:27.538Z,99569.86
2019-03-06T09:53:05.752Z,99581.97
2019-03-06T09:55:38.059Z,99573.45
2019-03-06T09:58:10.366Z,99569.73
2019-03-06T10:00:41.557Z,99562.62
2019-03-06T10:03:13.540Z,99579.72
2019-03-06T10:05:50.124Z,99577.30
2019-03-06T10:08:29.865Z,99572.74
2019-03-06T10:11:10.040Z,99568.31
2019-03-06T10:13:44.089Z,99571.16
2019-03-06T10:16:31.842Z,99554.64
2019-03-06T10:19:08.314Z,99553.88
2019-03-06T10:21:38.116Z,99555.32
2019-03-06T10:24:07.685Z,99539.66
2019-03-06T10:26:37.185Z,99538.86
2019-03-06T10:29:07.282Z,99534.78
2019-03-06T10:31:38.598Z,99544.70
2019-03-06T10:34:08.280Z,99546.95
2019-03-06T10:36:37.764Z,99543.00
2019-03-06T10:39:08.884Z,99540.97
2019-03-06T10:41:38.767Z,99540.78
2019-03-06T10:44:08.344Z,99538.20
2019-03-06T10:46:38.016Z,99528.95
2019-03-06T10:49:07.671Z,99526.22
2019-03-06T10:51:37.163Z,99520.80
2019-03-06T10:54:06.788Z,99522.47
2019-03-06T10:56:36.270Z,99525.48
2019-03-06T10:59:06.621Z,99521.58
2019-03-06T11:01:36.223Z,99518.06
2019-03-06T11:04:16.935Z,99511.18
2019-03-06T11:06:46.557Z,99513.09
2019-03-06T11:09:16.262Z,99515.13
2019-03-06T11:11:45.894Z,99519.28
2019-03-06T11:14:15.599Z,99510.81
2019-03-06T11:16:45.153Z,99500.71
2019-03-06T11:19:15.327Z,99500.75
2019-03-06T11:21:44.901Z,99498.39
2019-03-06T11:24:14.603Z,99495.41
2019-03-06T11:26:44.271Z,99497.64
2019-03-06T11:29:14.064Z,99501.96
2019-03-06T11:31:44.684Z,99495.08
2019-03-06T11:34:14.343Z,99475.11
2019-03-06T11:36:43.909Z,99471.77
2019-03-06T11:39:13.884Z,99464.77
2019-03-06T11:41:43.351Z,99454.02
2019-03-06T11:44:13.175Z,99457.75
2019-03-06T11:46:42.738Z,99452.86
2019-03-06T11:49:12.418Z,99442.09
2019-03-06T11:51:42.142Z,99446.09
2019-03-06T11:54:12.044Z,99421.41
2019-03-06T11:56:42.301Z,99417.98
2019-03-06T11:59:11.930Z,99405.93
2019-03-06T12:01:47.858Z,99406.34
2019-03-06T12:04:14.702Z,99403.47
2019-03-06T12:06:44.247Z,99404.70
2019-03-06T12:09:27.054Z,99386.73
2019-03-06T12:11:57.059Z,99387.05
2019-03-06T12:14:26.837Z,99386.59
2019-03-06T12:16:56.551Z,99380.16
2019-03-06T12:19:26.192Z,99372.60
2019-03-06T12:21:56.451Z,99370.78
2019-03-06T12:24:25.967Z,99370.71
2019-03-06T12:26:55.453Z,99356.74
2019-03-06T12:29:25.111Z,99346.02
2019-03-06T12:31:54.647Z,99340.66
2019-03-06T12:34:24.228Z,99341.58
2019-03-06T12:36:53.979Z,99329.30
2019-03-06T12:39:23.613Z,99317.32
2019-03-06T12:41:53.300Z,99319.98
2019-03-06T12:44:22.739Z,99313.56
2019-03-06T12:46:52.371Z,99316.56
2019-03-06T12:49:22.096Z,99310.84
2019-03-06T12:51:54.667Z,99310.86
2019-03-06T12:54:22.929Z,99308.06
2019-03-06T12:56:52.479Z,99301.04
2019-03-06T12:59:22.029Z,99295.12
2019-03-06T13:01:51.596Z,99290.63
2019-03-06T13:04:21.181Z,99284.31
2019-03-06T13:06:50.813Z,99276.39
2019-03-06T13:09:20.846Z,99281.45
2019-03-06T13:11:50.418Z,99287.47
2019-03-06T13:14:20.022Z,99279.95
2019-03-06T13:16:49.671Z,99271.73
2019-03-06T13:19:19.238Z,99259.78
2019-03-06T13:21:48.843Z,99259.13
2019-03-06T13:24:18.508Z,99254.48
2019-03-06T13:26:48.078Z,99240.98
2019-03-06T13:29:17.929Z,99249.86
2019-03-06T13:31:47.655Z,99258.75
2019-03-06T13:34:18.902Z,99252.80
2019-03-06T13:36:48.415Z,99248.05
2019-03-06T13:39:17.980Z,99239.41
2019-03-06T13:41:47.566Z,99239.30
2019-03-06T13:44:18.971Z,99237.15
2019-03-06T13:46:48.471Z,99239.48
2019-03-06T13:49:18.039Z,99239.26
2019-03-06T13:51:47.678Z,99236.75
2019-03-06T13:54:17.254Z,99238.69
2019-03-06T13:56:46.745Z,99228.42
2019-03-06T13:59:16.324Z,99231.08
2019-03-06T14:01:45.957Z,99231.44
2019-03-06T14:04:15.676Z,99219.41
2019-03-06T14:06:45.167Z,99217.98
2019-03-06T14:09:16.582Z,99220.20
2019-03-06T14:11:46.386Z,99233.18
2019-03-06T14:14:15.876Z,99236.88
2019-03-06T14:16:45.424Z,99238.84
2019-03-06T14:19:15.153Z,99242.30
2019-03-06T14:21:44.756Z,99239.71
2019-03-06T14:24:14.360Z,99235.08
2019-03-06T14:26:44.003Z,99238.20
2019-03-06T14:29:13.714Z,99238.70
2019-03-06T14:31:43.729Z,99237.09
2019-03-06T14:34:13.470Z,99227.77
2019-03-06T14:36:43.060Z,99224.22
2019-03-06T14:39:27.887Z,99217.02
2019-03-06T14:41:58.527Z,99224.84
2019-03-06T14:44:28.106Z,99215.87
2019-03-06T14:46:57.725Z,99215.44
2019-03-06T14:49:27.417Z,99214.17
2019-03-06T14:51:56.954Z,99208.52
2019-03-06T14:54:45.791Z,99210.42
2019-03-06T14:57:15.437Z,99204.35
2019-03-06T14:59:45.244Z,99192.69
2019-03-06T15:02:14.810Z,99196.02
2019-03-06T15:04:44.433Z,99186.55
2019-03-06T15:07:14.126Z,99181.83
2019-03-06T15:09:43.621Z,99180.09
2019-03-06T15:12:13.278Z,99178.61
2019-03-06T15:14:42.904Z,99171.63
2019-03-06T15:17:12.555Z,99166.98
2019-03-06T15:19:42.177Z,99163.00
2019-03-06T15:22:11.686Z,99167.45
2019-03-06T15:24:41.945Z,99160.22
2019-03-06T15:27:11.627Z,99157.15
2019-03-06T15:29:41.430Z,99149.98
2019-03-06T15:32:11.006Z,99150.75
2019-03-06T15:34:40.639Z,99150.36
2019-03-06T15:37:10.227Z,99154.42
2019-03-06T15:39:46.692Z,99148.48
2019-03-06T15:42:12.578Z,99150.23
2019-03-06T15:44:42.140Z,99144.41
2019-03-06T15:47:11.925Z,99141.87
2019-03-06T15:49:41.599Z,99141.11
2019-03-06T15:52:11.537Z,99136.33
2019-03-06T15:54:41.121Z,99133.36
2019-03-06T15:57:10.763Z,99132.98
2019-03-06T15:59:40.393Z,99130.20
2019-03-06T16:02:10.248Z,99121.48
2019-03-06T16:04:39.893Z,99116.84
2019-03-06T16:07:09.560Z,99118.16
2019-03-06T16:09:39.678Z,99112.16
2019-03-06T16:12:09.377Z,99114.41
2019-03-06T16:14:39.083Z,99118.43
2019-03-06T16:17:08.779Z,99119.02
2019-03-06T16:19:38.334Z,99119.81
2019-03-06T16:22:07.990Z,99116.22
2019-03-06T16:24:37.781Z,99116.30
2019-03-06T16:27:07.467Z,99115.81
2019-03-06T16:29:37.036Z,99125.08
2019-03-06T16:32:06.740Z,99114.61
2019-03-06T16:34:36.368Z,99108.45
2019-03-06T16:37:06.389Z,99115.94
2019-03-06T16:39:35.966Z,99110.41
2019-03-06T16:42:05.597Z,99112.45
2019-03-06T16:44:35.164Z,99105.44
2019-03-06T16:47:06.895Z,99101.47
2019-03-06T16:49:36.107Z,99098.73
2019-03-06T16:52:05.855Z,99081.53
2019-03-06T16:54:35.594Z,99084.55
2019-03-06T16:57:05.163Z,99093.18
2019-03-06T16:59:34.809Z,99088.94
2019-03-06T17:02:04.440Z,99087.10
2019-03-06T17:04:34.326Z,99087.28
2019-03-06T17:07:03.979Z,99087.41
2019-03-06T17:09:33.632Z,99078.83
2019-03-06T17:12:03.383Z,99087.44
2019-03-06T17:14:32.955Z,99082.05
2019-03-06T17:17:02.492Z,99079.59
2019-03-06T17:19:32.021Z,99084.78
2019-03-06T17:22:01.687Z,99084.05
2019-03-06T17:24:31.297Z,99076.67
2019-03-06T17:27:00.866Z,99078.05
2019-03-06T17:29:30.487Z,99071.98
2019-03-06T17:32:00.486Z,99071.92
2019-03-06T17:34:30.138Z,99072.89
2019-03-06T17:37:01.675Z,99088.38
2019-03-06T17:39:31.269Z,99078.88
2019-03-06T17:42:00.827Z,99084.43
2019-03-06T17:44:30.302Z,99090.70
2019-03-06T17:46:59.803Z,99086.35
2019-03-06T17:49:29.365Z,99092.30
2019-03-06T17:51:58.875Z,99086.80
2019-03-06T17:54:28.444Z,99089.61
2019-03-06T17:56:58.012Z,99082.69
2019-03-06T17:59:27.846Z,99079.63
2019-03-06T18:01:57.669Z,99086.16
2019-03-06T18:04:27.252Z,99079.23
2019-03-06T18:06:56.811Z,99063.45
2019-03-06T18:09:26.481Z,99064.92
2019-03-06T18:11:56.157Z,99060.52
2019-03-06T18:14:25.711Z,99061.22
2019-03-06T18:16:55.290Z,99053.59
2019-03-06T18:19:24.816Z,99046.06
2019-03-06T18:21:54.434Z,99057.69
2019-03-06T18:24:24.028Z,99055.13
2019-03-06T18:26:53.588Z,99048.33
2019-03-06T18:29:23.161Z,99053.39
2019-03-06T18:31:52.810Z,99051.75
2019-03-06T18:34:22.442Z,99045.08
2019-03-06T18:36:52.025Z,99050.80
2019-03-06T18:39:21.771Z,99046.67
2019-03-06T18:41:51.421Z,99049.30
2019-03-06T18:44:21.020Z,99050.34
2019-03-06T18:46:50.575Z,99052.23
2019-03-06T18:49:20.140Z,99052.16
2019-03-06T18:51:49.762Z,99044.52
2019-03-06T18:54:19.321Z,99035.16
2019-03-06T18:56:49.068Z,99023.30
2019-03-06T18:59:18.658Z,99019.20
2019-03-06T19:01:48.287Z,99018.82
2019-03-06T19:04:17.797Z,99025.08
2019-03-06T19:06:47.376Z,99020.53
2019-03-06T19:09:16.989Z,99018.09
2019-03-06T19:11:46.803Z,99007.16
2019-03-06T19:14:16.418Z,99003.05
2019-03-06T19:16:46.021Z,98995.75
2019-03-06T19:19:15.615Z,99006.17
2019-03-06T19:21:45.179Z,99010.73
2019-03-06T19:24:14.684Z,99003.17
2019-03-06T19:26:44.319Z,98997.30
2019-03-06T19:29:13.917Z,98993.23
2019-03-06T19:31:43.478Z,98986.88
2019-03-06T19:34:13.035Z,98974.35
2019-03-06T19:36:42.525Z,98972.52
2019-03-06T19:39:12.207Z,98976.77
2019-03-06T19:41:41.775Z,98979.52
2019-03-06T19:44:11.426Z,98978.54
2019-03-06T19:46:40.926Z,98971.41
2019-03-06T19:49:10.555Z,98963.14
2019-03-06T19:51:40.064Z,98965.43
2019-03-06T19:54:09.650Z,98973.91
2019-03-06T19:56:39.343Z,98965.08
2019-03-06T19:59:09.006Z,98949.77
2019-03-06T20:01:38.650Z,98944.91
2019-03-06T20:04:08.320Z,98954.02
2019-03-06T20:06:37.929Z,98957.52
2019-03-06T20:09:23.568Z,98957.09
2019-03-06T20:11:53.404Z,98958.73
2019-03-06T20:14:23.047Z,98966.55
2019-03-06T20:16:52.666Z,98953.97
2019-03-06T20:19:22.216Z,98946.78
2019-03-06T20:21:51.878Z,98956.58
2019-03-06T20:24:21.485Z,98954.73
2019-03-06T20:26:51.106Z,98953.73
2019-03-06T20:29:20.752Z,98955.44
2019-03-06T20:31:50.403Z,98956.29
2019-03-06T20:34:20.022Z,98950.27
2019-03-06T20:36:49.898Z,98950.22
2019-03-06T20:39:19.530Z,98937.49
2019-03-06T20:41:49.188Z,98932.25
2019-03-06T20:44:18.752Z,98920.35
2019-03-06T20:46:48.420Z,98922.72
2019-03-06T20:49:17.956Z,98922.77
2019-03-06T20:51:47.780Z,98926.67
2019-03-06T20:54:17.273Z,98930.31
2019-03-06T20:56:46.877Z,98929.81
2019-03-06T20:59:16.967Z,98934.47
2019-03-06T21:01:46.504Z,98926.91
2019-03-06T21:04:16.017Z,98935.86
2019-03-06T21:06:45.907Z,98926.14
2019-03-06T21:09:17.074Z,98914.44
2019-03-06T21:11:46.978Z,98921.41
2019-03-06T21:14:16.563Z,98924.80
2019-03-06T21:16:46.052Z,98915.86
2019-03-06T21:19:15.804Z,98915.76
2019-03-06T21:21:45.386Z,98917.90
2019-03-06T21:24:14.934Z,98906.25
2019-03-06T21:26:44.633Z,98904.53
2019-03-06T21:29:14.208Z,98903.47
2019-03-06T21:31:43.796Z,98899.84
2019-03-06T21:34:13.428Z,98887.87
2019-03-06T21:36:43.109Z,98888.78
2019-03-06T21:39:23.898Z,98884.87
2019-03-06T21:41:53.578Z,98887.04
2019-03-06T21:44:23.248Z,98889.65
2019-03-06T21:46:52.830Z,98896.67
2019-03-06T21:49:22.438Z,98890.75
2019-03-06T21:51:51.999Z,98892.95
2019-03-06T21:54:21.967Z,98889.61
2019-03-06T21:56:51.451Z,98884.18
2019-03-06T21:59:20.952Z,98894.36
2019-03-06T22:01:50.443Z,98886.70
2019-03-06T22:04:20.021Z,98881.73
2019-03-06T22:06:49.579Z,98880.98
2019-03-06T22:09:19.558Z,98874.88
2019-03-06T22:11:49.058Z,98874.08
2019-03-06T22:14:18.611Z,98875.28
2019-03-06T22:16:49.830Z,98872.53
2019-03-06T22:19:19.373Z,98869.41
2019-03-06T22:21:48.875Z,98867.88
2019-03-06T22:24:18.429Z,98862.80
2019-03-06T22:26:48.435Z,98859.17
2019-03-06T22:29:17.929Z,98845.62
2019-03-06T22:31:47.437Z,98855.52
2019-03-06T22:34:16.924Z,98847.47
2019-03-06T22:36:46.484Z,98844.03
2019-03-06T22:39:16.048Z,98838.25
2019-03-06T22:41:45.533Z,98837.84
2019-03-06T22:44:15.043Z,98832.17
2019-03-06T22:46:44.622Z,98825.41
2019-03-06T22:49:14.133Z,98825.66
2019-03-06T22:51:43.895Z,98815.02
2019-03-06T22:54:13.377Z,98808.31
2019-03-06T22:56:42.892Z,98801.67
2019-03-06T22:59:12.406Z,98808.56
2019-03-06T23:01:43.004Z,98803.15
2019-03-06T23:04:12.579Z,98808.55
2019-03-06T23:06:42.165Z,98804.71
2019-03-06T23:09:12.400Z,98802.58
2019-03-06T23:11:42.357Z,98803.48
2019-03-06T23:14:12.024Z,98796.13
2019-03-06T23:16:41.518Z,98795.86
2019-03-06T23:19:10.993Z,98790.13
2019-03-06T23:21:40.630Z,98786.41
2019-03-06T23:24:10.274Z,98789.53
2019-03-06T23:26:43.118Z,98783.03
2019-03-06T23:29:11.107Z,98786.41
2019-03-06T23:31:41.797Z,98773.91
2019-03-06T23:34:11.375Z,98765.02
2019-03-06T23:36:40.932Z,98763.58
2019-03-06T23:39:12.700Z,98750.73
2019-03-06T23:41:42.259Z,98750.92
2019-03-06T23:44:12.120Z,98730.74
2019-03-06T23:46:41.728Z,98719.15
2019-03-06T23:49:11.255Z,98724.62
2019-03-06T23:51:42.383Z,98723.31
2019-03-06T23:54:11.883Z,98714.66
2019-03-06T23:56:43.965Z,98710.66
2019-03-06T23:59:12.686Z,98717.27
